To NAV CANADA Home Page Login to a new session Search on AWWS site Feedback and Comments Disclaimer Vers la page française équivalente Tips FAQ What's new on the site To the Forecasts and Observations / NOTAM section To "File a Flight Plan" website Publications and other links Update of the User's profile FIC Telephone Numbers My Weather Data Folder Route Weather Data Regional Weather Data Local Weather Data To the Forecasts and Observations / NOTAM section
Request Generated 04/21/2014 at 00:03:21 UTC . Weather information available at that time is displayed.

METAR/TAF

LOURDES-DE-BLANC-SABLON/QC    

METAR CYBX 210000Z 35008KT 15SM FEW120 M02/M09 A3005 RMK AC1 SLP178=
METAR CYBX 202300Z 33004KT 15SM FEW120 00/M07 A3003 RMK AC1 CONTRAILS SLP173=
METAR CYBX 202200Z 00000KT 15SM FEW250 M00/M05 A3003 RMK CI1 SLP170=

TAF CYBX 201943Z 2020/2108 20008KT P6SM FEW030
BECMG 2023/2101 31008KT
RMK NXT FCST BY 210200Z=
Your time UTC time
Weather data provided by Environment Canada and NAV CANADA